createdAt,value
2023-04-15T00:00:04.000Z,10.74
2023-04-15T00:01:04.216Z,10.62
2023-04-15T00:02:04.678Z,10.40
2023-04-15T00:03:05.034Z,10.32
2023-04-15T00:04:05.271Z,10.18
2023-04-15T00:05:05.512Z,10.17
2023-04-15T00:06:05.775Z,10.10
2023-04-15T00:07:06.055Z,9.99
2023-04-15T00:08:06.447Z,9.94
2023-04-15T00:09:06.784Z,9.96
2023-04-15T00:10:07.046Z,10.03
2023-04-15T00:11:07.338Z,10.06
2023-04-15T00:12:07.701Z,10.00
2023-04-15T00:13:07.901Z,9.96
2023-04-15T00:14:08.236Z,9.94
2023-04-15T00:15:08.484Z,9.93
2023-04-15T00:16:08.862Z,9.94
2023-04-15T00:17:09.141Z,9.89
2023-04-15T00:18:09.387Z,9.93
2023-04-15T00:19:09.802Z,9.88
2023-04-15T00:20:10.066Z,9.85
2023-04-15T00:21:10.316Z,9.81
2023-04-15T00:22:10.593Z,9.81
2023-04-15T00:23:10.896Z,9.82
2023-04-15T00:24:11.244Z,9.83
2023-04-15T00:25:11.471Z,9.83
2023-04-15T00:26:11.702Z,9.78
2023-04-15T00:27:11.995Z,9.79
2023-04-15T00:28:12.233Z,9.82
2023-04-15T00:29:12.588Z,9.83
2023-04-15T00:30:12.859Z,9.83
2023-04-15T00:31:13.153Z,9.81
2023-04-15T00:32:13.409Z,9.81
2023-04-15T00:33:13.708Z,9.83
2023-04-15T00:34:13.959Z,9.83
2023-04-15T00:35:14.342Z,9.83
2023-04-15T00:36:14.633Z,9.85
2023-04-15T00:37:14.965Z,9.82
2023-04-15T00:38:15.252Z,9.79
2023-04-15T00:39:15.480Z,9.76
2023-04-15T00:40:15.820Z,9.71
2023-04-15T00:41:15.986Z,9.73
2023-04-15T00:42:16.361Z,9.73
2023-04-15T00:43:16.523Z,9.73
2023-04-15T00:44:16.825Z,9.70
2023-04-15T00:45:17.144Z,9.75
2023-04-15T00:46:17.592Z,9.75
2023-04-15T00:47:17.803Z,9.76
2023-04-15T00:48:18.100Z,9.70
2023-04-15T00:49:18.324Z,9.67
2023-04-15T00:50:18.753Z,9.71
2023-04-15T00:51:18.969Z,9.75
2023-04-15T00:52:19.474Z,9.79
2023-04-15T00:53:19.711Z,9.81
2023-04-15T00:54:19.851Z,9.81
2023-04-15T00:55:20.102Z,9.78
2023-04-15T00:56:20.327Z,9.82
2023-04-15T00:57:20.694Z,9.81
2023-04-15T00:58:20.942Z,9.83
2023-04-15T00:59:21.236Z,9.81
2023-04-15T01:00:21.584Z,9.79
2023-04-15T01:01:21.768Z,9.78
2023-04-15T01:02:22.197Z,9.73
2023-04-15T01:03:22.574Z,9.73
2023-04-15T01:04:22.838Z,9.68
2023-04-15T01:05:23.046Z,9.63
2023-04-15T01:06:23.340Z,9.58
2023-04-15T01:07:24.000Z,9.50
2023-04-15T01:08:23.858Z,9.48
2023-04-15T01:09:24.105Z,9.43
2023-04-15T01:10:24.402Z,9.38
2023-04-15T01:11:24.653Z,9.34
2023-04-15T01:12:24.973Z,9.30
2023-04-15T01:13:25.356Z,9.28
2023-04-15T01:14:25.640Z,9.27
2023-04-15T01:15:25.901Z,9.24
2023-04-15T01:16:26.184Z,9.25
2023-04-15T01:17:26.450Z,9.25
2023-04-15T01:18:26.792Z,9.27
2023-04-15T01:19:27.038Z,9.27
2023-04-15T01:20:27.419Z,9.31
2023-04-15T01:21:27.727Z,9.28
2023-04-15T01:22:28.013Z,9.27
2023-04-15T01:23:28.256Z,9.25
2023-04-15T01:24:28.633Z,9.24
2023-04-15T01:25:28.874Z,9.24
2023-04-15T01:26:29.119Z,9.23
2023-04-15T01:27:29.440Z,9.23
2023-04-15T01:28:29.753Z,9.23
2023-04-15T01:29:30.191Z,9.21
2023-04-15T01:30:30.407Z,9.24
2023-04-15T01:31:30.643Z,9.23
2023-04-15T01:32:31.077Z,9.20
2023-04-15T01:33:31.306Z,9.18
2023-04-15T01:34:33.033Z,9.16
2023-04-15T01:35:32.017Z,9.15
2023-04-15T01:36:32.279Z,9.04
2023-04-15T01:37:32.562Z,8.96
2023-04-15T01:38:32.933Z,8.96
2023-04-15T01:39:33.125Z,8.87
2023-04-15T01:40:33.595Z,8.79
2023-04-15T01:41:33.835Z,8.79
2023-04-15T01:42:34.206Z,8.75
2023-04-15T01:43:34.509Z,8.71
2023-04-15T01:44:34.841Z,8.75
2023-04-15T01:45:35.061Z,8.76
2023-04-15T01:46:35.375Z,8.72
2023-04-15T01:47:36.103Z,8.66
2023-04-15T01:48:35.920Z,8.60
2023-04-15T01:49:36.189Z,8.53
2023-04-15T01:50:36.419Z,8.54
2023-04-15T01:51:36.715Z,8.47
2023-04-15T01:52:37.077Z,8.44
2023-04-15T01:53:37.317Z,8.47
2023-04-15T01:54:37.617Z,8.51
2023-04-15T01:55:38.134Z,8.58
2023-04-15T01:56:38.231Z,8.62
2023-04-15T01:57:38.556Z,8.66
2023-04-15T01:58:38.808Z,8.66
2023-04-15T01:59:39.122Z,8.72
2023-04-15T02:00:39.545Z,8.75
2023-04-15T02:01:39.619Z,8.78
2023-04-15T02:02:40.162Z,8.76
2023-04-15T02:03:40.265Z,8.75
2023-04-15T02:04:40.601Z,8.68
2023-04-15T02:05:40.771Z,8.62
2023-04-15T02:06:41.070Z,8.55
2023-04-15T02:07:41.371Z,8.50
2023-04-15T02:08:41.608Z,8.48
2023-04-15T02:09:41.969Z,8.45
2023-04-15T02:10:42.141Z,8.40
2023-04-15T02:11:42.509Z,8.37
2023-04-15T02:12:42.796Z,8.37
2023-04-15T02:13:43.037Z,8.35
2023-04-15T02:14:43.337Z,8.39
2023-04-15T02:15:43.631Z,8.42
2023-04-15T02:16:44.183Z,8.44
2023-04-15T02:17:44.288Z,8.44
2023-04-15T02:18:44.465Z,8.48
2023-04-15T02:19:44.762Z,8.48
2023-04-15T02:20:45.259Z,8.54
2023-04-15T02:21:45.779Z,8.54
2023-04-15T02:22:45.608Z,8.57
2023-04-15T02:23:45.874Z,8.60
2023-04-15T02:24:46.248Z,8.57
2023-04-15T02:25:53.440Z,8.55
2023-04-15T02:26:47.740Z,8.58
2023-04-15T02:27:46.979Z,8.60
2023-04-15T02:28:47.317Z,8.63
2023-04-15T02:29:47.610Z,8.63
2023-04-15T02:30:47.849Z,8.63
2023-04-15T02:31:48.202Z,8.66
2023-04-15T02:32:48.488Z,8.60
2023-04-15T02:33:48.696Z,8.62
2023-04-15T02:34:48.902Z,8.60
2023-04-15T02:35:49.136Z,8.60
2023-04-15T02:36:49.475Z,8.63
2023-04-15T02:37:49.759Z,8.58
2023-04-15T02:38:50.055Z,8.58
2023-04-15T02:39:50.335Z,8.55
2023-04-15T02:40:50.603Z,8.54
2023-04-15T02:41:50.844Z,8.50
2023-04-15T02:42:51.178Z,8.50
2023-04-15T02:43:51.446Z,8.50
2023-04-15T02:44:51.757Z,8.50
2023-04-15T02:45:52.133Z,8.51
2023-04-15T02:46:52.950Z,8.48
2023-04-15T02:47:53.606Z,8.50
2023-04-15T02:48:53.029Z,8.51
2023-04-15T02:49:53.264Z,8.53
2023-04-15T02:50:53.524Z,8.54
2023-04-15T02:51:53.855Z,8.53
2023-04-15T02:52:54.162Z,8.51
2023-04-15T02:53:54.402Z,8.48
2023-04-15T02:54:54.775Z,8.44
2023-04-15T02:55:55.045Z,8.42
2023-04-15T02:56:55.358Z,8.39
2023-04-15T02:57:55.840Z,8.35
2023-04-15T02:58:55.889Z,8.33
2023-04-15T02:59:56.320Z,8.32
2023-04-15T03:00:56.513Z,8.30
2023-04-15T03:01:56.728Z,8.28
2023-04-15T03:02:57.090Z,8.26
2023-04-15T03:03:57.383Z,8.25
2023-04-15T03:04:57.556Z,8.21
2023-04-15T03:05:57.879Z,8.21
2023-04-15T03:06:58.061Z,8.15
2023-04-15T03:07:58.394Z,8.17
2023-04-15T03:08:58.833Z,8.15
2023-04-15T03:09:59.032Z,8.17
2023-04-15T03:10:59.373Z,8.18
2023-04-15T03:11:59.747Z,8.17
2023-04-15T03:13:00.148Z,8.15
2023-04-15T03:14:00.252Z,8.18
2023-04-15T03:15:00.575Z,8.15
2023-04-15T03:16:00.953Z,8.14
2023-04-15T03:17:01.225Z,8.11
2023-04-15T03:18:01.419Z,8.10
2023-04-15T03:19:02.055Z,8.10
2023-04-15T03:20:02.083Z,8.10
2023-04-15T03:21:02.359Z,8.10
2023-04-15T03:22:02.585Z,8.11
2023-04-15T03:23:02.876Z,8.04
2023-04-15T03:24:03.232Z,8.04
2023-04-15T03:25:03.517Z,8.02
2023-04-15T03:26:03.772Z,8.02
2023-04-15T03:27:04.099Z,8.00
2023-04-15T03:28:04.383Z,7.97
2023-04-15T03:29:04.752Z,7.99
2023-04-15T03:30:04.993Z,8.00
2023-04-15T03:31:05.364Z,7.97
2023-04-15T03:32:05.580Z,7.99
2023-04-15T03:33:05.943Z,7.99
2023-04-15T03:34:06.268Z,7.99
2023-04-15T03:35:06.510Z,8.00
2023-04-15T03:36:06.894Z,7.93
2023-04-15T03:37:07.129Z,7.93
2023-04-15T03:38:07.340Z,7.93
2023-04-15T03:39:07.653Z,7.93
2023-04-15T03:40:08.011Z,7.90
2023-04-15T03:41:08.250Z,7.89
2023-04-15T03:42:08.527Z,7.85
2023-04-15T03:43:08.774Z,7.84
2023-04-15T03:44:10.037Z,7.81
2023-04-15T03:45:09.559Z,7.79
2023-04-15T03:46:11.630Z,7.78
2023-04-15T03:47:10.062Z,7.82
2023-04-15T03:48:16.501Z,7.79
2023-04-15T03:49:11.957Z,7.78
2023-04-15T03:50:10.915Z,7.81
2023-04-15T03:51:11.147Z,7.79
2023-04-15T03:52:11.535Z,7.78
2023-04-15T03:53:11.865Z,7.78
2023-04-15T03:54:12.068Z,7.78
2023-04-15T03:55:12.441Z,7.78
2023-04-15T03:56:12.863Z,7.75
2023-04-15T03:57:13.113Z,7.75
2023-04-15T03:58:13.272Z,7.77
2023-04-15T03:59:13.642Z,7.72
2023-04-15T04:00:13.859Z,7.72
2023-04-15T04:01:14.266Z,7.67
2023-04-15T04:02:14.445Z,7.63
2023-04-15T04:03:14.807Z,7.62
2023-04-15T04:04:15.066Z,7.56
2023-04-15T04:05:15.231Z,7.50
2023-04-15T04:06:15.421Z,7.52
2023-04-15T04:07:15.770Z,7.52
2023-04-15T04:08:15.961Z,7.50
2023-04-15T04:09:16.333Z,7.52
2023-04-15T04:10:16.499Z,7.50
2023-04-15T04:11:16.930Z,7.52
2023-04-15T04:12:17.113Z,7.52
2023-04-15T04:13:17.422Z,7.50
2023-04-15T04:14:17.699Z,7.49
2023-04-15T04:15:17.911Z,7.50
2023-04-15T04:16:18.196Z,7.49
2023-04-15T04:17:18.515Z,7.45
2023-04-15T04:18:18.674Z,7.50
2023-04-15T04:19:18.980Z,7.47
2023-04-15T04:20:19.313Z,7.47
2023-04-15T04:21:19.723Z,7.47
2023-04-15T04:22:19.924Z,7.49
2023-04-15T04:23:20.241Z,7.45
2023-04-15T04:24:20.412Z,7.45
2023-04-15T04:25:20.765Z,7.49
2023-04-15T04:26:21.080Z,7.52
2023-04-15T04:27:21.398Z,7.50
2023-04-15T04:28:21.722Z,7.52
2023-04-15T04:29:22.140Z,7.50
2023-04-15T04:30:22.280Z,7.49
2023-04-15T04:31:22.672Z,7.53
2023-04-15T04:32:22.902Z,7.50
2023-04-15T04:33:23.399Z,7.52
2023-04-15T04:34:23.398Z,7.53
2023-04-15T04:35:23.831Z,7.53
2023-04-15T04:36:24.007Z,7.59
2023-04-15T04:37:24.335Z,7.59
2023-04-15T04:38:24.650Z,7.60
2023-04-15T04:39:24.967Z,7.60
2023-04-15T04:40:25.172Z,7.66
2023-04-15T04:41:25.598Z,7.66
2023-04-15T04:42:25.783Z,7.67
2023-04-15T04:43:26.153Z,7.71
2023-04-15T04:44:26.336Z,7.71
2023-04-15T04:45:27.465Z,7.67
2023-04-15T04:46:26.876Z,7.66
2023-04-15T04:47:27.279Z,7.67
2023-04-15T04:48:27.668Z,7.67
2023-04-15T04:49:27.757Z,7.71
2023-04-15T04:50:28.097Z,7.69
2023-04-15T04:51:28.364Z,7.71
2023-04-15T04:52:28.639Z,7.72
2023-04-15T04:53:29.044Z,7.72
2023-04-15T04:54:29.198Z,7.74
2023-04-15T04:55:29.606Z,7.74
2023-04-15T04:56:29.800Z,7.74
2023-04-15T04:57:30.100Z,7.75
2023-04-15T04:58:30.313Z,7.77
2023-04-15T04:59:30.629Z,7.74
2023-04-15T05:00:31.354Z,7.71
2023-04-15T05:01:31.359Z,7.69
2023-04-15T05:02:31.592Z,7.66
2023-04-15T05:03:31.838Z,7.69
2023-04-15T05:04:32.056Z,7.67
2023-04-15T05:05:32.396Z,7.74
2023-04-15T05:06:32.634Z,7.71
2023-04-15T05:07:32.862Z,7.71
2023-04-15T05:08:34.084Z,7.71
2023-04-15T05:09:33.417Z,7.71
2023-04-15T05:10:33.753Z,7.72
2023-04-15T05:11:34.108Z,7.74
2023-04-15T05:12:34.421Z,7.69
2023-04-15T05:13:34.598Z,7.69
2023-04-15T05:14:34.912Z,7.69
2023-04-15T05:15:35.278Z,7.67
2023-04-15T05:16:35.563Z,7.63
2023-04-15T05:17:36.146Z,7.63
2023-04-15T05:18:36.176Z,7.67
2023-04-15T05:19:36.494Z,7.62
2023-04-15T05:20:36.821Z,7.66
2023-04-15T05:21:39.348Z,7.66
2023-04-15T05:22:37.417Z,7.62
2023-04-15T05:23:37.714Z,7.60
2023-04-15T05:24:37.888Z,7.58
2023-04-15T05:25:38.284Z,7.59
2023-04-15T05:26:38.579Z,7.59
2023-04-15T05:27:38.782Z,7.59
2023-04-15T05:28:39.027Z,7.60
2023-04-15T05:29:39.288Z,7.58
2023-04-15T05:30:39.517Z,7.58
2023-04-15T05:31:40.086Z,7.59
2023-04-15T05:32:40.265Z,7.60
2023-04-15T05:33:40.479Z,7.62
2023-04-15T05:34:40.681Z,7.62
2023-04-15T05:35:41.040Z,7.62
2023-04-15T05:36:41.325Z,7.66
2023-04-15T05:37:41.541Z,7.63
2023-04-15T05:38:41.818Z,7.67
2023-04-15T05:39:42.061Z,7.69
2023-04-15T05:40:42.340Z,7.67
2023-04-15T05:41:44.000Z,7.67
2023-04-15T05:42:43.272Z,7.67
2023-04-15T05:43:43.424Z,7.69
2023-04-15T05:44:43.327Z,7.72
2023-04-15T05:45:43.711Z,7.71
2023-04-15T05:46:43.924Z,7.72
2023-04-15T05:47:44.353Z,7.72
2023-04-15T05:48:44.629Z,7.72
2023-04-15T05:49:44.871Z,7.75
2023-04-15T05:50:45.077Z,7.78
2023-04-15T05:51:45.421Z,7.81
2023-04-15T05:52:45.702Z,7.84
2023-04-15T05:53:46.062Z,7.85
2023-04-15T05:54:46.242Z,7.87
2023-04-15T05:55:46.649Z,7.85
2023-04-15T05:56:46.840Z,7.79
2023-04-15T05:57:47.172Z,7.74
2023-04-15T05:58:47.391Z,7.72
2023-04-15T05:59:47.757Z,7.75
2023-04-15T06:00:48.080Z,7.75
2023-04-15T06:01:48.485Z,7.78
2023-04-15T06:02:48.594Z,7.78
2023-04-15T06:03:48.879Z,7.81
2023-04-15T06:04:49.006Z,7.82
2023-04-15T06:05:49.375Z,7.84
2023-04-15T06:06:49.589Z,7.89
2023-04-15T06:07:50.014Z,7.90
2023-04-15T06:08:50.296Z,7.90
2023-04-15T06:09:50.483Z,7.90
2023-04-15T06:10:50.907Z,7.92
2023-04-15T06:11:51.072Z,7.96
2023-04-15T06:12:51.313Z,7.96
2023-04-15T06:13:51.746Z,8.03
2023-04-15T06:14:51.951Z,8.00
2023-04-15T06:15:52.291Z,8.03
2023-04-15T06:16:52.430Z,8.07
2023-04-15T06:17:53.698Z,8.12
2023-04-15T06:18:53.191Z,8.14
2023-04-15T06:19:53.363Z,8.18
2023-04-15T06:20:53.679Z,8.21
2023-04-15T06:21:53.881Z,8.25
2023-04-15T06:22:54.108Z,8.22
2023-04-15T06:23:54.459Z,8.28
2023-04-15T06:24:54.702Z,8.33
2023-04-15T06:25:54.953Z,8.36
2023-04-15T06:26:55.177Z,8.42
2023-04-15T06:27:55.372Z,8.44
2023-04-15T06:28:55.600Z,8.50
2023-04-15T06:29:56.007Z,8.58
2023-04-15T06:30:56.202Z,8.58
2023-04-15T06:31:56.654Z,8.60
2023-04-15T06:32:56.890Z,8.65
2023-04-15T06:33:57.116Z,8.71
2023-04-15T06:34:57.390Z,8.73
2023-04-15T06:35:57.633Z,8.83
2023-04-15T06:36:58.022Z,8.90
2023-04-15T06:37:58.290Z,9.02
2023-04-15T06:38:58.439Z,9.13
2023-04-15T06:39:58.796Z,9.15
2023-04-15T06:41:00.063Z,9.21
2023-04-15T06:41:59.383Z,9.27
2023-04-15T06:42:59.712Z,9.35
2023-04-15T06:43:59.895Z,9.43
2023-04-15T06:45:00.340Z,9.53
2023-04-15T06:46:00.557Z,9.57
2023-04-15T06:47:00.654Z,9.64
2023-04-15T06:48:01.160Z,9.67
2023-04-15T06:49:01.359Z,9.68
2023-04-15T06:50:01.972Z,9.75
2023-04-15T06:51:01.961Z,9.79
2023-04-15T06:52:02.105Z,9.83
2023-04-15T06:53:02.367Z,9.88
2023-04-15T06:54:02.599Z,9.94
2023-04-15T06:55:02.852Z,9.91
2023-04-15T06:56:03.077Z,9.91
2023-04-15T06:57:03.294Z,9.97
2023-04-15T06:58:03.637Z,10.07
2023-04-15T06:59:04.353Z,10.14
2023-04-15T07:00:04.114Z,10.17
2023-04-15T07:01:04.553Z,10.21
2023-04-15T07:02:04.790Z,10.21
2023-04-15T07:03:05.062Z,10.28
2023-04-15T07:04:05.292Z,10.36
2023-04-15T07:05:05.494Z,10.36
2023-04-15T07:06:05.708Z,10.42
2023-04-15T07:07:06.143Z,10.55
2023-04-15T07:08:06.379Z,10.55
2023-04-15T07:09:06.686Z,10.59
2023-04-15T07:10:07.131Z,10.62
2023-04-15T07:11:07.337Z,10.73
2023-04-15T07:12:07.590Z,10.78
2023-04-15T07:13:07.819Z,10.86
2023-04-15T07:14:08.256Z,10.96
2023-04-15T07:15:08.448Z,11.01
2023-04-15T07:16:08.804Z,11.06
2023-04-15T07:17:09.127Z,11.09
2023-04-15T07:18:09.318Z,11.14
2023-04-15T07:19:09.704Z,11.19
2023-04-15T07:20:09.929Z,11.20
2023-04-15T07:21:10.426Z,11.19
2023-04-15T07:22:10.575Z,11.20
2023-04-15T07:23:10.808Z,11.19
2023-04-15T07:24:11.077Z,11.24
2023-04-15T07:25:11.661Z,11.24
2023-04-15T07:26:11.715Z,11.21
2023-04-15T07:27:12.024Z,11.24
2023-04-15T07:28:12.342Z,11.31
2023-04-15T07:29:12.559Z,11.35
2023-04-15T07:30:12.811Z,11.35
2023-04-15T07:31:13.087Z,11.39
2023-04-15T07:32:13.305Z,11.38
2023-04-15T07:33:13.531Z,11.43
2023-04-15T07:34:13.753Z,11.38
2023-04-15T07:35:14.137Z,11.46
2023-04-15T07:36:14.388Z,11.50
2023-04-15T07:37:14.912Z,11.53
2023-04-15T07:38:15.010Z,11.52
2023-04-15T07:39:15.247Z,11.53
2023-04-15T07:40:15.585Z,11.49
2023-04-15T07:41:15.898Z,11.56
2023-04-15T07:42:16.106Z,11.53
2023-04-15T07:43:16.257Z,11.59
2023-04-15T07:44:16.746Z,11.70
2023-04-15T07:45:16.951Z,11.89
2023-04-15T07:46:17.277Z,11.93
2023-04-15T07:47:17.570Z,11.96
2023-04-15T07:48:17.810Z,12.01
2023-04-15T07:49:18.004Z,11.82
2023-04-15T07:50:18.450Z,11.82
2023-04-15T07:51:18.652Z,11.85
2023-04-15T07:52:18.969Z,11.82
2023-04-15T07:53:19.206Z,11.85
2023-04-15T07:54:19.453Z,11.77
2023-04-15T07:55:19.691Z,11.74
2023-04-15T07:56:20.031Z,11.78
2023-04-15T07:57:20.266Z,11.82
2023-04-15T07:58:20.637Z,11.89
2023-04-15T07:59:20.881Z,11.99
2023-04-15T08:00:21.284Z,12.05
2023-04-15T08:01:21.576Z,12.01
2023-04-15T08:02:21.883Z,12.01
2023-04-15T08:03:23.158Z,12.08
2023-04-15T08:04:22.455Z,12.16
2023-04-15T08:05:22.723Z,12.15
2023-04-15T08:06:22.981Z,12.13
2023-04-15T08:07:23.192Z,12.13
2023-04-15T08:08:24.036Z,12.20
2023-04-15T08:09:23.815Z,12.21
2023-04-15T08:10:24.170Z,12.24
2023-04-15T08:11:24.382Z,12.29
2023-04-15T08:12:24.826Z,12.63
2023-04-15T08:13:25.103Z,12.75
2023-04-15T08:14:25.290Z,12.78
2023-04-15T08:15:25.516Z,13.15
2023-04-15T08:16:25.935Z,13.49
2023-04-15T08:17:26.172Z,13.98
2023-04-15T08:18:26.406Z,14.39
2023-04-15T08:19:26.678Z,14.80
2023-04-15T08:20:26.991Z,15.17
2023-04-15T08:21:27.247Z,15.41
2023-04-15T08:22:27.578Z,15.56
2023-04-15T08:23:27.786Z,15.75
2023-04-15T08:24:28.149Z,15.66
2023-04-15T08:25:28.422Z,15.66
2023-04-15T08:26:28.677Z,15.60
2023-04-15T08:27:28.939Z,15.84
2023-04-15T08:28:29.246Z,15.79
2023-04-15T08:29:29.494Z,15.92
2023-04-15T08:30:30.642Z,16.04
2023-04-15T08:31:30.123Z,16.11
2023-04-15T08:32:30.328Z,15.86
2023-04-15T08:33:30.662Z,15.72
2023-04-15T08:34:31.023Z,15.63
2023-04-15T08:35:31.140Z,15.46
2023-04-15T08:36:31.372Z,15.31
2023-04-15T08:37:31.664Z,15.39
2023-04-15T08:38:31.948Z,15.43
2023-04-15T08:39:32.119Z,15.33
2023-04-15T08:40:32.492Z,15.23
2023-04-15T08:41:32.676Z,15.21
2023-04-15T08:42:33.064Z,15.05
2023-04-15T08:43:33.280Z,15.11
2023-04-15T08:44:33.530Z,15.27
2023-04-15T08:45:33.732Z,15.15
2023-04-15T08:46:34.099Z,15.21
2023-04-15T08:47:34.335Z,15.41
2023-04-15T08:48:34.645Z,15.49
2023-04-15T08:49:34.859Z,15.60
2023-04-15T08:50:35.218Z,15.70
2023-04-15T08:51:35.493Z,15.84
2023-04-15T08:52:35.813Z,15.82
2023-04-15T08:53:36.056Z,15.86
2023-04-15T08:54:36.326Z,15.99
2023-04-15T08:55:36.535Z,16.20
2023-04-15T08:56:36.775Z,16.23
2023-04-15T08:57:37.156Z,16.30
2023-04-15T08:58:37.529Z,16.11
2023-04-15T08:59:38.618Z,16.00
2023-04-15T09:00:37.950Z,15.92
2023-04-15T09:01:38.385Z,15.84
2023-04-15T09:02:38.671Z,15.68
2023-04-15T09:03:38.866Z,15.68
2023-04-15T09:04:39.208Z,15.76
2023-04-15T09:05:39.400Z,15.92
2023-04-15T09:06:39.724Z,16.26
2023-04-15T09:07:39.856Z,16.38
2023-04-15T09:08:40.363Z,16.53
2023-04-15T09:09:40.543Z,16.75
2023-04-15T09:10:40.792Z,16.85
2023-04-15T09:11:41.078Z,17.23
2023-04-15T09:12:41.418Z,17.29
2023-04-15T09:13:41.617Z,17.64
2023-04-15T09:14:41.828Z,17.66
2023-04-15T09:15:42.200Z,17.88
2023-04-15T09:16:42.489Z,18.10
2023-04-15T09:17:42.763Z,18.31
2023-04-15T09:18:43.101Z,18.15
2023-04-15T09:19:43.227Z,18.04
2023-04-15T09:20:43.584Z,18.06
2023-04-15T09:21:43.946Z,18.50
2023-04-15T09:22:44.173Z,18.91
2023-04-15T09:23:44.580Z,19.11
2023-04-15T09:24:44.809Z,19.11
2023-04-15T09:25:44.992Z,19.08
2023-04-15T09:26:45.414Z,19.02
2023-04-15T09:27:46.114Z,18.99
2023-04-15T09:28:45.996Z,19.15
2023-04-15T09:29:46.206Z,19.25
2023-04-15T09:30:47.379Z,19.39
2023-04-15T09:31:46.983Z,19.29
2023-04-15T09:32:47.173Z,19.29
2023-04-15T09:33:47.359Z,19.31
2023-04-15T09:34:47.701Z,18.99
2023-04-15T09:35:47.941Z,18.79
2023-04-15T09:36:50.501Z,19.10
2023-04-15T09:37:48.631Z,19.02
2023-04-15T09:38:48.892Z,19.13
2023-04-15T09:39:49.205Z,19.29
2023-04-15T09:40:49.408Z,19.24
2023-04-15T09:41:49.730Z,19.13
2023-04-15T09:42:50.366Z,18.98
2023-04-15T09:43:50.238Z,18.74
2023-04-15T09:44:50.560Z,18.47
2023-04-15T09:45:50.955Z,18.28
2023-04-15T09:46:51.143Z,18.03
2023-04-15T09:47:51.566Z,17.95
2023-04-15T09:48:51.813Z,18.02
2023-04-15T09:49:52.052Z,18.22
2023-04-15T09:50:52.234Z,18.33
2023-04-15T09:52:04.599Z,18.25
2023-04-15T09:52:53.990Z,18.33
2023-04-15T09:53:53.249Z,18.58
2023-04-15T09:54:54.552Z,18.59
2023-04-15T09:55:53.820Z,18.46
2023-04-15T09:56:54.096Z,18.54
2023-04-15T09:57:54.325Z,18.50
2023-04-15T09:58:54.658Z,18.49
2023-04-15T09:59:55.428Z,18.54
2023-04-15T10:00:55.321Z,18.59
2023-04-15T10:01:55.602Z,18.39
2023-04-15T10:02:56.022Z,18.39
2023-04-15T10:03:56.173Z,18.28
2023-04-15T10:04:56.365Z,18.52
2023-04-15T10:05:56.752Z,18.61
2023-04-15T10:06:56.954Z,18.57
2023-04-15T10:07:57.230Z,18.34
2023-04-15T10:08:57.510Z,18.06
2023-04-15T10:09:57.681Z,17.85
2023-04-15T10:10:58.162Z,17.73
2023-04-15T10:11:58.340Z,17.79
2023-04-15T10:12:58.630Z,17.88
2023-04-15T10:13:58.969Z,18.12
2023-04-15T10:14:59.270Z,18.49
2023-04-15T10:15:59.520Z,19.10
2023-04-15T10:16:59.840Z,19.58
2023-04-15T10:18:00.146Z,19.93
2023-04-15T10:19:00.345Z,20.05
2023-04-15T10:20:00.576Z,19.88
2023-04-15T10:21:01.311Z,19.94
2023-04-15T10:22:01.144Z,20.02
2023-04-15T10:23:01.374Z,19.69
2023-04-15T10:24:01.922Z,19.14
2023-04-15T10:25:01.874Z,18.74
2023-04-15T10:26:02.264Z,18.04
2023-04-15T10:27:02.478Z,17.84
2023-04-15T10:28:02.879Z,17.63
2023-04-15T10:29:03.060Z,17.64
2023-04-15T10:30:03.391Z,17.69
2023-04-15T10:31:03.754Z,17.63
2023-04-15T10:32:03.972Z,17.46
2023-04-15T10:33:04.167Z,17.26
2023-04-15T10:34:04.589Z,17.28
2023-04-15T10:35:04.695Z,17.30
2023-04-15T10:36:04.963Z,17.44
2023-04-15T10:37:05.182Z,17.54
2023-04-15T10:38:05.595Z,17.76
2023-04-15T10:39:05.889Z,17.74
2023-04-15T10:40:06.061Z,17.78
2023-04-15T10:41:06.474Z,17.99
2023-04-15T10:42:06.809Z,18.12
2023-04-15T10:43:07.036Z,18.31
2023-04-15T10:44:07.267Z,18.42
2023-04-15T10:45:07.993Z,18.37
2023-04-15T10:46:07.837Z,18.36
2023-04-15T10:47:08.172Z,18.62
2023-04-15T10:48:08.420Z,18.62
2023-04-15T10:49:08.643Z,18.79
2023-04-15T10:50:09.360Z,19.01
2023-04-15T10:51:09.152Z,19.17
2023-04-15T10:52:09.422Z,19.17
2023-04-15T10:53:09.685Z,19.13
2023-04-15T10:54:09.914Z,18.95
2023-04-15T10:55:10.318Z,18.59
2023-04-15T10:56:10.490Z,18.24
2023-04-15T10:57:10.824Z,17.87
2023-04-15T10:58:11.958Z,17.67
2023-04-15T10:59:11.590Z,17.47
2023-04-15T11:00:11.663Z,17.26
2023-04-15T11:01:11.914Z,17.11
2023-04-15T11:02:12.193Z,17.07
2023-04-15T11:03:12.565Z,16.93
2023-04-15T11:04:12.804Z,17.04
2023-04-15T11:05:12.991Z,17.11
2023-04-15T11:06:13.361Z,17.14
2023-04-15T11:07:13.512Z,17.22
2023-04-15T11:08:13.820Z,17.26
2023-04-15T11:09:14.023Z,17.11
2023-04-15T11:10:14.366Z,16.93
2023-04-15T11:11:14.691Z,16.93
2023-04-15T11:12:14.939Z,16.88
2023-04-15T11:13:15.197Z,16.88
2023-04-15T11:14:15.371Z,16.88
2023-04-15T11:15:15.772Z,16.89
2023-04-15T11:16:16.031Z,16.83
2023-04-15T11:17:16.205Z,16.75
2023-04-15T11:18:16.660Z,16.73
2023-04-15T11:19:16.880Z,16.58
2023-04-15T11:20:17.099Z,16.59
2023-04-15T11:21:17.578Z,16.60
2023-04-15T11:22:17.769Z,16.63
2023-04-15T11:23:18.096Z,16.71
2023-04-15T11:24:18.329Z,16.77
2023-04-15T11:25:18.664Z,16.89
2023-04-15T11:26:18.989Z,16.74
2023-04-15T11:27:19.340Z,16.86
2023-04-15T11:28:19.553Z,16.99
2023-04-15T11:29:19.851Z,17.15
2023-04-15T11:30:20.305Z,17.17
2023-04-15T11:31:20.508Z,17.23
2023-04-15T11:32:20.718Z,17.28
2023-04-15T11:33:20.865Z,17.40
2023-04-15T11:34:21.222Z,17.30
2023-04-15T11:35:21.644Z,17.25
2023-04-15T11:36:21.827Z,17.11
2023-04-15T11:37:22.114Z,17.08
2023-04-15T11:38:22.307Z,17.03
2023-04-15T11:39:22.691Z,17.03
2023-04-15T11:40:22.893Z,16.89
2023-04-15T11:41:23.223Z,16.86
2023-04-15T11:42:23.555Z,16.80
2023-04-15T11:43:23.859Z,16.77
2023-04-15T11:44:24.253Z,16.65
2023-04-15T11:45:24.535Z,16.60
2023-04-15T11:46:24.726Z,16.62
2023-04-15T11:47:25.153Z,16.67
2023-04-15T11:48:25.222Z,16.60
2023-04-15T11:49:25.521Z,16.60
2023-04-15T11:50:25.688Z,16.58
2023-04-15T11:51:26.068Z,16.52
2023-04-15T11:52:26.360Z,16.45
2023-04-15T11:53:26.619Z,16.41
2023-04-15T11:54:26.878Z,16.33
2023-04-15T11:55:27.337Z,16.34
2023-04-15T11:56:27.385Z,16.30
2023-04-15T11:57:27.776Z,16.26
2023-04-15T11:58:27.937Z,16.26
2023-04-15T11:59:38.974Z,16.26
2023-04-15T12:00:29.536Z,16.33
2023-04-15T12:01:28.963Z,16.31
2023-04-15T12:02:29.184Z,16.33
2023-04-15T12:03:29.670Z,16.27
2023-04-15T12:04:29.935Z,16.22
2023-04-15T12:05:30.001Z,16.27
2023-04-15T12:06:30.367Z,16.25
2023-04-15T12:07:30.582Z,16.30
2023-04-15T12:08:30.873Z,16.31
2023-04-15T12:09:32.442Z,16.38
2023-04-15T12:10:31.400Z,16.48
2023-04-15T12:11:31.617Z,16.55
2023-04-15T12:12:31.983Z,16.65
2023-04-15T12:13:32.148Z,16.62
2023-04-15T12:14:33.495Z,16.55
2023-04-15T12:15:32.745Z,16.56
2023-04-15T12:16:34.160Z,16.45
2023-04-15T12:17:52.142Z,16.42
2023-04-15T12:18:34.683Z,16.33
2023-04-15T12:19:33.971Z,16.16
2023-04-15T12:20:34.302Z,16.12
2023-04-15T12:21:34.461Z,16.06
2023-04-15T12:22:34.797Z,16.06
2023-04-15T12:23:35.122Z,16.12
2023-04-15T12:24:35.496Z,16.15
2023-04-15T12:25:35.775Z,16.15
2023-04-15T12:26:36.058Z,16.12
2023-04-15T12:27:36.240Z,16.14
2023-04-15T12:28:36.478Z,16.11
2023-04-15T12:29:36.825Z,16.03
2023-04-15T12:30:37.237Z,16.01
2023-04-15T12:31:37.661Z,15.97
2023-04-15T12:32:37.808Z,15.94
2023-04-15T12:33:38.130Z,15.88
2023-04-15T12:34:38.293Z,15.84
2023-04-15T12:35:38.701Z,15.85
2023-04-15T12:36:38.953Z,15.88
2023-04-15T12:37:39.284Z,15.88
2023-04-15T12:38:39.550Z,15.84
2023-04-15T12:39:39.778Z,15.76
2023-04-15T12:40:39.992Z,15.76
2023-04-15T12:41:40.313Z,15.72
2023-04-15T12:42:40.668Z,15.70
2023-04-15T12:43:40.857Z,15.66
2023-04-15T12:44:41.180Z,15.61
2023-04-15T12:45:41.364Z,15.56
2023-04-15T12:46:42.198Z,15.57
2023-04-15T12:47:42.007Z,15.60
2023-04-15T12:48:42.280Z,15.67
2023-04-15T12:49:42.645Z,15.74
2023-04-15T12:50:42.864Z,15.78
2023-04-15T12:51:43.200Z,15.78
2023-04-15T12:52:43.504Z,15.75
2023-04-15T12:53:43.707Z,15.70
2023-04-15T12:54:44.010Z,15.66
2023-04-15T12:55:44.231Z,15.66
2023-04-15T12:56:44.495Z,15.60
2023-04-15T12:57:44.699Z,15.54
2023-04-15T12:58:45.101Z,15.56
2023-04-15T12:59:45.305Z,15.52
2023-04-15T13:00:45.593Z,15.54
2023-04-15T13:01:45.808Z,15.63
2023-04-15T13:02:46.174Z,15.72
2023-04-15T13:03:46.592Z,15.74
2023-04-15T13:04:46.642Z,15.74
2023-04-15T13:05:46.876Z,15.74
2023-04-15T13:06:47.126Z,15.57
2023-04-15T13:07:47.502Z,15.49
2023-04-15T13:08:57.437Z,15.52